createdAt,value
2017-10-01T00:01:46.264Z,35.43
2017-10-01T00:04:14.195Z,23.67
2017-10-01T00:06:41.787Z,23.70
2017-10-01T00:09:09.380Z,29.70
2017-10-01T00:11:37.018Z,47.00
2017-10-01T00:14:04.644Z,25.23
2017-10-01T00:16:32.229Z,34.40
2017-10-01T00:18:59.847Z,27.20
2017-10-01T00:21:27.425Z,33.13
2017-10-01T00:23:55.007Z,27.23
2017-10-01T00:26:22.630Z,34.53
2017-10-01T00:28:50.219Z,26.43
2017-10-01T00:31:17.880Z,29.73
2017-10-01T00:33:45.506Z,27.10
2017-10-01T00:36:13.104Z,24.70
2017-10-01T00:38:40.698Z,33.43
2017-10-01T00:41:08.353Z,34.27
2017-10-01T00:43:35.938Z,32.07
2017-10-01T00:46:03.518Z,30.40
2017-10-01T00:48:31.144Z,56.03
2017-10-01T00:50:58.739Z,30.90
2017-10-01T00:53:26.319Z,31.17
2017-10-01T00:55:54.204Z,33.80
2017-10-01T00:58:21.824Z,26.43
2017-10-01T01:00:49.727Z,28.73
2017-10-01T01:03:17.343Z,34.40
2017-10-01T01:05:45.260Z,25.40
2017-10-01T01:08:12.845Z,27.20
2017-10-01T01:10:40.460Z,27.73
2017-10-01T01:13:08.049Z,26.43
2017-10-01T01:15:35.640Z,38.83
2017-10-01T01:18:03.251Z,24.77
2017-10-01T01:20:30.845Z,29.23
2017-10-01T01:22:58.428Z,32.80
2017-10-01T01:25:26.062Z,30.37
2017-10-01T01:27:53.646Z,24.20
2017-10-01T01:30:21.248Z,31.77
2017-10-01T01:32:48.872Z,25.20
2017-10-01T01:35:16.460Z,28.00
2017-10-01T01:37:44.061Z,29.20
2017-10-01T01:40:11.685Z,26.20
2017-10-01T01:42:39.279Z,26.03
2017-10-01T01:45:07.153Z,30.03
2017-10-01T01:47:34.766Z,25.63
2017-10-01T01:50:02.354Z,24.27
2017-10-01T01:52:29.947Z,25.07
2017-10-01T01:54:57.915Z,28.97
2017-10-01T01:57:25.881Z,26.40
2017-10-01T01:59:53.493Z,33.80
2017-10-01T02:02:21.112Z,24.80
2017-10-01T02:04:48.700Z,27.13
2017-10-01T02:07:16.290Z,27.30
2017-10-01T02:09:44.214Z,31.27
2017-10-01T02:12:11.819Z,27.73
2017-10-01T02:14:39.404Z,27.43
2017-10-01T02:17:07.028Z,36.03
2017-10-01T02:19:34.612Z,37.87
2017-10-01T02:22:02.230Z,25.90
2017-10-01T02:24:29.851Z,27.00
2017-10-01T02:26:57.440Z,29.57
2017-10-01T02:29:25.040Z,38.20
2017-10-01T02:31:52.662Z,26.40
2017-10-01T02:34:20.248Z,26.27
2017-10-01T02:36:48.108Z,34.17
2017-10-01T02:39:15.724Z,23.83
2017-10-01T02:41:43.612Z,21.60
2017-10-01T02:44:11.482Z,31.03
2017-10-01T02:46:39.107Z,24.53
2017-10-01T02:49:07.017Z,32.33
2017-10-01T02:51:34.614Z,24.70
2017-10-01T02:54:02.236Z,33.57
2017-10-01T02:56:29.819Z,28.13
2017-10-01T02:58:57.659Z,31.97
2017-10-01T03:01:25.533Z,27.37
2017-10-01T03:03:53.113Z,29.90
2017-10-01T03:06:20.718Z,24.23
2017-10-01T03:08:48.352Z,30.13
2017-10-01T03:11:16.184Z,28.03
2017-10-01T03:13:43.771Z,29.63
2017-10-01T03:16:11.399Z,24.63
2017-10-01T03:18:38.992Z,25.97
2017-10-01T03:21:06.579Z,25.00
2017-10-01T03:23:34.217Z,35.43
2017-10-01T03:26:02.066Z,26.93
2017-10-01T03:28:29.660Z,26.00
2017-10-01T03:30:57.290Z,24.77
2017-10-01T03:33:24.872Z,25.47
2017-10-01T03:35:52.454Z,26.60
2017-10-01T03:38:20.074Z,28.17
2017-10-01T03:40:47.931Z,28.83
2017-10-01T03:43:15.525Z,25.13
2017-10-01T03:45:43.169Z,26.00
2017-10-01T03:48:10.755Z,35.00
2017-10-01T03:50:38.349Z,39.27
2017-10-01T03:53:05.975Z,25.00
2017-10-01T03:55:33.569Z,29.97
2017-10-01T03:58:01.156Z,28.63
2017-10-01T04:00:29.037Z,29.33
2017-10-01T04:02:56.634Z,28.93
2017-10-01T04:05:24.222Z,28.60
2017-10-01T04:07:51.843Z,26.27
2017-10-01T04:10:19.433Z,31.53
2017-10-01T04:12:47.025Z,38.23
2017-10-01T04:15:14.652Z,33.13
2017-10-01T04:17:42.235Z,25.93
2017-10-01T04:20:10.136Z,36.60
2017-10-01T04:22:37.761Z,35.23
2017-10-01T04:25:05.349Z,37.90
2017-10-01T04:27:32.943Z,27.50
2017-10-01T04:30:00.575Z,28.47
2017-10-01T04:32:28.158Z,31.10
2017-10-01T04:34:55.795Z,27.30
2017-10-01T04:37:24.144Z,35.47
2017-10-01T04:39:51.736Z,34.00
2017-10-01T04:42:19.319Z,34.80
2017-10-01T04:44:46.937Z,29.00
2017-10-01T04:47:14.540Z,26.07
2017-10-01T04:49:42.407Z,28.37
2017-10-01T04:52:10.371Z,30.60
2017-10-01T04:54:37.959Z,38.20
2017-10-01T04:57:05.537Z,28.63
2017-10-01T04:59:33.195Z,33.50
2017-10-01T05:02:00.791Z,25.80
2017-10-01T05:04:28.392Z,38.03
2017-10-01T05:06:56.034Z,40.17
2017-10-01T05:09:23.912Z,30.00
2017-10-01T05:11:51.489Z,40.80
2017-10-01T05:14:19.115Z,33.80
2017-10-01T05:16:46.699Z,32.37
2017-10-01T05:19:14.561Z,34.00
2017-10-01T05:21:42.226Z,30.33
2017-10-01T05:24:09.840Z,30.33
2017-10-01T05:26:37.425Z,33.83
2017-10-01T05:29:05.065Z,36.97
2017-10-01T05:31:32.656Z,29.90
2017-10-01T05:34:00.231Z,35.43
2017-10-01T05:36:27.855Z,30.27
2017-10-01T05:38:55.453Z,26.07
2017-10-01T05:41:23.046Z,37.30
2017-10-01T05:43:50.681Z,33.60
2017-10-01T05:46:18.272Z,39.43
2017-10-01T05:48:46.113Z,38.13
2017-10-01T05:51:13.739Z,33.07
2017-10-01T05:53:41.331Z,33.60
2017-10-01T05:56:09.315Z,32.47
2017-10-01T05:58:36.935Z,28.37
2017-10-01T06:01:04.519Z,37.60
2017-10-01T06:03:32.397Z,33.80
2017-10-01T06:06:00.032Z,28.67
2017-10-01T06:08:27.933Z,29.40
2017-10-01T06:10:55.512Z,36.07
2017-10-01T06:13:23.136Z,29.57
2017-10-01T06:15:50.714Z,30.73
2017-10-01T06:18:18.309Z,37.00
2017-10-01T06:20:46.206Z,30.50
2017-10-01T06:23:13.798Z,27.77
2017-10-01T06:25:41.679Z,27.60
2017-10-01T06:28:09.322Z,32.50
2017-10-01T06:30:36.901Z,35.30
2017-10-01T06:33:04.484Z,30.33
2017-10-01T06:35:32.123Z,35.07
2017-10-01T06:37:59.720Z,29.67
2017-10-01T06:40:27.337Z,36.03
2017-10-01T06:42:54.972Z,34.97
2017-10-01T06:45:22.579Z,38.30
2017-10-01T06:47:50.844Z,31.50
2017-10-01T06:50:18.635Z,28.30
2017-10-01T06:52:46.271Z,35.03
2017-10-01T06:55:13.862Z,37.60
2017-10-01T06:57:41.501Z,38.60
2017-10-01T07:00:09.071Z,52.47
2017-10-01T07:02:36.646Z,34.33
2017-10-01T07:05:04.285Z,39.93
2017-10-01T07:07:31.883Z,39.77
2017-10-01T07:09:59.916Z,33.70
2017-10-01T07:12:27.889Z,31.73
2017-10-01T07:14:55.475Z,42.80
2017-10-01T07:17:23.084Z,35.43
2017-10-01T07:19:50.730Z,41.97
2017-10-01T07:22:18.320Z,39.50
2017-10-01T07:24:45.933Z,37.53
2017-10-01T07:27:13.554Z,46.53
2017-10-01T07:29:41.145Z,50.83
2017-10-01T07:32:09.083Z,36.00
2017-10-01T07:34:36.707Z,34.30
2017-10-01T07:37:04.617Z,38.37
2017-10-01T07:39:32.221Z,42.17
2017-10-01T07:41:59.911Z,48.93
2017-10-01T07:44:27.863Z,33.53
2017-10-01T07:46:55.447Z,38.30
2017-10-01T07:49:23.087Z,44.37
2017-10-01T07:51:50.676Z,41.63
2017-10-01T07:54:18.268Z,38.80
2017-10-01T07:56:45.895Z,48.80
2017-10-01T07:59:13.485Z,38.93
2017-10-01T08:01:41.075Z,46.93
2017-10-01T08:04:09.018Z,43.13
2017-10-01T08:06:36.604Z,46.07
2017-10-01T08:09:04.197Z,55.87
2017-10-01T08:11:31.823Z,37.97
2017-10-01T08:13:59.418Z,35.33
2017-10-01T08:16:27.025Z,51.43
2017-10-01T08:18:54.651Z,38.03
2017-10-01T08:21:22.553Z,37.60
2017-10-01T08:23:50.135Z,53.90
2017-10-01T08:26:17.769Z,43.80
2017-10-01T08:28:45.373Z,41.37
2017-10-01T08:31:12.988Z,48.20
2017-10-01T08:33:41.004Z,46.40
2017-10-01T08:36:09.148Z,47.23
2017-10-01T08:38:36.737Z,42.83
2017-10-01T08:41:04.380Z,39.20
2017-10-01T08:43:31.988Z,38.50
2017-10-01T08:45:59.617Z,43.80
2017-10-01T08:48:27.277Z,36.97
2017-10-01T08:50:54.907Z,40.83
2017-10-01T08:53:22.756Z,38.83
2017-10-01T08:55:50.760Z,35.80
2017-10-01T08:58:18.361Z,46.30
2017-10-01T09:00:45.951Z,42.57
2017-10-01T09:03:13.629Z,41.90
2017-10-01T09:05:41.209Z,48.70
2017-10-01T09:08:08.807Z,43.83
2017-10-01T09:10:36.433Z,43.37
2017-10-01T09:13:04.020Z,38.43
2017-10-01T09:15:31.609Z,34.77
2017-10-01T09:17:59.236Z,37.73
2017-10-01T09:20:26.837Z,44.70
2017-10-01T09:22:54.428Z,38.63
2017-10-01T09:25:22.053Z,42.77
2017-10-01T09:27:49.634Z,39.00
2017-10-01T09:30:17.250Z,40.97
2017-10-01T09:32:44.877Z,38.70
2017-10-01T09:35:12.469Z,34.90
2017-10-01T09:37:40.066Z,37.30
2017-10-01T09:40:08.057Z,36.30
2017-10-01T09:42:35.661Z,35.30
2017-10-01T09:45:03.251Z,35.00
2017-10-01T09:47:30.876Z,38.43
2017-10-01T09:49:58.456Z,36.90
2017-10-01T09:52:26.296Z,30.27
2017-10-01T09:54:53.921Z,29.17
2017-10-01T09:57:21.528Z,25.57
2017-10-01T09:59:49.103Z,22.60
2017-10-01T10:02:16.711Z,25.80
2017-10-01T10:04:44.308Z,18.57
2017-10-01T10:07:11.883Z,21.27
2017-10-01T10:09:39.496Z,17.67
2017-10-01T10:12:07.087Z,12.43
2017-10-01T10:14:34.664Z,11.20
2017-10-01T10:17:02.277Z,10.80
2017-10-01T10:19:29.917Z,10.63
2017-10-01T10:21:57.502Z,10.00
2017-10-01T10:24:25.401Z,9.70
2017-10-01T10:26:52.966Z,9.77
2017-10-01T10:29:20.541Z,9.70
2017-10-01T10:31:48.167Z,9.33
2017-10-01T10:34:16.046Z,8.93
2017-10-01T10:36:43.963Z,11.60
2017-10-01T10:39:11.577Z,8.73
2017-10-01T10:41:39.154Z,8.97
2017-10-01T10:44:06.751Z,9.40
2017-10-01T10:46:34.412Z,8.70
2017-10-01T10:49:02.005Z,12.80
2017-10-01T10:51:29.611Z,8.30
2017-10-01T10:53:57.225Z,8.53
2017-10-01T10:56:24.803Z,9.93
2017-10-01T10:58:52.408Z,9.07
2017-10-01T11:01:20.072Z,10.67
2017-10-01T11:03:47.648Z,8.97
2017-10-01T11:06:15.255Z,12.63
2017-10-01T11:08:43.130Z,10.20
2017-10-01T11:11:10.720Z,9.80
2017-10-01T11:13:38.656Z,9.90
2017-10-01T11:16:06.316Z,13.07
2017-10-01T11:18:34.197Z,9.57
2017-10-01T11:21:01.786Z,9.50
2017-10-01T11:23:29.826Z,11.73
2017-10-01T11:25:57.420Z,9.47
2017-10-01T11:28:25.041Z,11.40
2017-10-01T11:30:52.671Z,9.60
2017-10-01T11:33:20.275Z,9.80
2017-10-01T11:35:50.255Z,9.50
2017-10-01T11:38:17.912Z,9.40
2017-10-01T11:40:45.524Z,10.17
2017-10-01T11:43:13.105Z,9.73
2017-10-01T11:45:40.724Z,10.60
2017-10-01T11:48:08.346Z,10.63
2017-10-01T11:50:35.936Z,10.10
2017-10-01T11:53:03.833Z,10.40
2017-10-01T11:55:31.432Z,11.30
2017-10-01T11:57:59.032Z,10.47
2017-10-01T12:00:26.920Z,17.90
2017-10-01T12:02:54.507Z,10.37
2017-10-01T12:05:22.354Z,10.90
2017-10-01T12:07:50.326Z,10.80
2017-10-01T12:10:17.937Z,12.80
2017-10-01T12:12:45.545Z,13.73
2017-10-01T12:15:13.520Z,10.83
2017-10-01T12:17:41.382Z,12.50
2017-10-01T12:20:08.986Z,11.37
2017-10-01T12:22:36.610Z,10.40
2017-10-01T12:25:04.196Z,10.60
2017-10-01T12:27:31.792Z,10.60
2017-10-01T12:29:59.440Z,11.30
2017-10-01T12:32:27.067Z,11.37
2017-10-01T12:34:54.649Z,12.03
2017-10-01T12:37:22.290Z,37.23
2017-10-01T12:39:49.945Z,13.63
2017-10-01T12:42:18.988Z,13.23
2017-10-01T12:47:20.520Z,12.57
2017-10-01T12:49:48.213Z,14.10
2017-10-01T12:52:16.245Z,16.73
2017-10-01T12:54:44.087Z,14.37
2017-10-01T12:57:11.798Z,15.10
2017-10-01T12:59:39.387Z,14.27
2017-10-01T13:02:12.604Z,18.53
2017-10-01T13:04:40.277Z,17.60
2017-10-01T13:07:07.871Z,13.67
2017-10-01T13:09:35.516Z,16.60
2017-10-01T13:12:03.104Z,13.40
2017-10-01T13:14:30.697Z,14.73
2017-10-01T13:16:58.326Z,13.53
2017-10-01T13:19:26.486Z,12.73
2017-10-01T13:21:54.073Z,13.07
2017-10-01T13:24:21.715Z,13.50
2017-10-01T13:26:49.297Z,13.50
2017-10-01T13:29:16.930Z,14.83
2017-10-01T13:31:44.564Z,15.60
2017-10-01T13:34:12.255Z,12.97
2017-10-01T13:36:39.850Z,13.67
2017-10-01T13:39:07.487Z,14.03
2017-10-01T13:41:35.133Z,21.47
2017-10-01T13:44:02.741Z,14.83
2017-10-01T13:46:30.772Z,15.57
2017-10-01T13:48:58.386Z,13.30
2017-10-01T13:51:25.980Z,16.73
2017-10-01T13:53:53.624Z,19.90
2017-10-01T13:56:21.238Z,17.63
2017-10-01T13:58:48.836Z,13.87
2017-10-01T14:01:17.088Z,15.50
2017-10-01T14:03:44.680Z,17.03
2017-10-01T14:06:12.267Z,15.40
2017-10-01T14:08:39.895Z,16.93
2017-10-01T14:11:07.807Z,13.93
2017-10-01T14:13:35.637Z,14.77
2017-10-01T14:16:03.277Z,14.63
2017-10-01T14:18:30.866Z,13.97
2017-10-01T14:20:58.444Z,14.40
2017-10-01T14:23:26.129Z,13.40
2017-10-01T14:25:53.740Z,19.50
2017-10-01T14:28:21.342Z,14.60
2017-10-01T14:30:54.750Z,12.87
2017-10-01T14:33:22.344Z,15.60
2017-10-01T14:35:49.925Z,12.93
2017-10-01T14:38:17.564Z,14.30
2017-10-01T14:40:45.153Z,15.93
2017-10-01T14:43:13.064Z,17.27
2017-10-01T14:45:40.710Z,16.80
2017-10-01T14:48:08.326Z,15.40
2017-10-01T14:50:35.920Z,13.70
2017-10-01T14:53:03.591Z,17.10
2017-10-01T14:55:31.215Z,12.13
2017-10-01T14:57:58.807Z,12.30
2017-10-01T15:00:26.453Z,13.63
2017-10-01T15:02:54.098Z,13.07
2017-10-01T15:05:21.735Z,17.10
2017-10-01T15:07:49.359Z,15.93
2017-10-01T15:10:16.949Z,13.93
2017-10-01T15:12:44.533Z,12.73
2017-10-01T15:15:12.165Z,14.83
2017-10-01T15:17:40.039Z,15.37
2017-10-01T15:20:07.644Z,16.40
2017-10-01T15:22:35.276Z,14.03
2017-10-01T15:25:02.852Z,15.30
2017-10-01T15:27:30.444Z,13.20
2017-10-01T15:29:58.076Z,12.80
2017-10-01T15:32:26.016Z,14.20
2017-10-01T15:34:53.599Z,15.20
2017-10-01T15:37:21.332Z,14.13
2017-10-01T15:39:48.991Z,14.07
2017-10-01T15:42:16.626Z,14.20
2017-10-01T15:44:44.250Z,13.27
2017-10-01T15:47:11.845Z,14.80
2017-10-01T15:49:39.452Z,14.50
2017-10-01T15:52:07.101Z,12.73
2017-10-01T15:54:34.726Z,14.37
2017-10-01T15:57:02.338Z,13.60
2017-10-01T15:59:30.314Z,15.17
2017-10-01T16:01:57.923Z,16.37
2017-10-01T16:04:25.581Z,12.70
2017-10-01T16:06:53.254Z,13.50
2017-10-01T16:09:21.082Z,15.57
2017-10-01T16:11:48.731Z,16.73
2017-10-01T16:14:16.653Z,14.27
2017-10-01T16:16:45.384Z,17.40
2017-10-01T16:19:13.363Z,22.60
2017-10-01T16:21:41.020Z,18.10
2017-10-01T16:24:08.630Z,16.40
2017-10-01T16:26:36.220Z,15.87
2017-10-01T16:29:03.862Z,19.60
2017-10-01T16:31:31.496Z,14.20
2017-10-01T16:33:59.098Z,19.00
2017-10-01T16:36:26.791Z,14.40
2017-10-01T16:38:54.503Z,15.63
2017-10-01T16:41:22.107Z,16.07
2017-10-01T16:43:49.740Z,16.43
2017-10-01T16:46:17.394Z,16.23
2017-10-01T16:48:44.984Z,17.97
2017-10-01T16:51:12.651Z,15.97
2017-10-01T16:53:40.298Z,22.47
2017-10-01T16:56:07.899Z,19.00
2017-10-01T16:58:35.547Z,15.13
2017-10-01T17:01:03.167Z,15.67
2017-10-01T17:03:30.756Z,17.60
2017-10-01T17:05:58.751Z,24.60
2017-10-01T17:08:26.362Z,17.70
2017-10-01T17:10:54.029Z,18.20
2017-10-01T17:13:21.691Z,18.43
2017-10-01T17:15:49.295Z,16.40
2017-10-01T17:18:16.906Z,19.13
2017-10-01T17:20:44.546Z,17.70
2017-10-01T17:23:12.600Z,16.40
2017-10-01T17:25:40.196Z,21.43
2017-10-01T17:28:07.830Z,25.07
2017-10-01T17:30:35.438Z,20.57
2017-10-01T17:33:03.045Z,18.47
2017-10-01T17:35:30.667Z,18.60
2017-10-01T17:37:58.259Z,18.33
2017-10-01T17:40:25.859Z,21.10
2017-10-01T17:42:53.489Z,26.10
2017-10-01T17:45:21.100Z,18.77
2017-10-01T17:47:48.704Z,19.83
2017-10-01T17:50:16.341Z,21.30
2017-10-01T17:52:43.950Z,22.50
2017-10-01T17:55:11.562Z,22.73
2017-10-01T17:57:39.184Z,21.60
2017-10-01T18:00:06.849Z,27.00
2017-10-01T18:02:34.518Z,20.83
2017-10-01T18:05:02.561Z,20.70
2017-10-01T18:07:30.557Z,22.20
2017-10-01T18:09:58.157Z,21.43
2017-10-01T18:12:25.823Z,22.10
2017-10-01T18:14:53.723Z,20.80
2017-10-01T18:17:21.315Z,20.03
2017-10-01T18:19:49.251Z,26.77
2017-10-01T18:22:16.834Z,19.60
2017-10-01T18:24:44.436Z,26.13
2017-10-01T18:27:12.099Z,20.50
2017-10-01T18:29:39.711Z,25.50
2017-10-01T18:32:07.570Z,22.90
2017-10-01T18:34:35.541Z,20.07
2017-10-01T18:37:03.123Z,23.40
2017-10-01T18:39:30.729Z,19.07
2017-10-01T18:41:58.634Z,23.60
2017-10-01T18:44:26.224Z,25.47
2017-10-01T18:46:54.188Z,22.03
2017-10-01T18:49:21.816Z,26.13
2017-10-01T18:51:49.416Z,19.60
2017-10-01T18:54:17.014Z,23.73
2017-10-01T18:56:44.669Z,21.60
2017-10-01T18:59:12.261Z,23.23
2017-10-01T19:01:39.871Z,23.40
2017-10-01T19:04:07.505Z,22.87
2017-10-01T19:06:35.128Z,21.27
2017-10-01T19:09:02.739Z,41.90
2017-10-01T19:11:30.397Z,31.37
2017-10-01T19:13:57.996Z,21.20
2017-10-01T19:16:25.579Z,22.97
2017-10-01T19:18:53.204Z,34.70
2017-10-01T19:21:20.806Z,28.77
2017-10-01T19:23:48.431Z,22.60
2017-10-01T19:26:16.061Z,24.10
2017-10-01T19:28:43.922Z,54.33
2017-10-01T19:31:11.514Z,26.93
2017-10-01T19:33:39.144Z,25.13
2017-10-01T19:36:06.752Z,22.07
2017-10-01T19:38:34.682Z,25.20
2017-10-01T19:41:02.321Z,23.60
2017-10-01T19:43:29.927Z,22.63
2017-10-01T19:45:57.515Z,23.17
2017-10-01T19:48:25.178Z,23.37
2017-10-01T19:50:52.767Z,30.03
2017-10-01T19:53:20.367Z,21.20
2017-10-01T19:55:47.999Z,22.03
2017-10-01T19:58:15.594Z,27.80
2017-10-01T20:00:43.239Z,20.90
2017-10-01T20:03:10.888Z,23.27
2017-10-01T20:05:38.483Z,27.57
2017-10-01T20:08:06.076Z,25.07
2017-10-01T20:10:33.710Z,24.50
2017-10-01T20:13:01.379Z,23.10
2017-10-01T20:15:28.974Z,27.03
2017-10-01T20:17:56.596Z,24.03
2017-10-01T20:20:24.244Z,27.90
2017-10-01T20:22:51.845Z,27.10
2017-10-01T20:25:19.769Z,28.33
2017-10-01T20:27:47.369Z,24.93
2017-10-01T20:30:14.959Z,25.70
2017-10-01T20:32:42.584Z,26.23
2017-10-01T20:35:10.195Z,28.53
2017-10-01T20:37:37.788Z,27.60
2017-10-01T20:40:05.450Z,23.53
2017-10-01T20:42:33.422Z,32.77
2017-10-01T20:45:01.055Z,26.73
2017-10-01T20:47:28.691Z,42.00
2017-10-01T20:49:56.300Z,43.63
2017-10-01T20:52:23.939Z,26.83
2017-10-01T20:54:51.827Z,25.10
2017-10-01T20:57:19.691Z,25.80
2017-10-01T20:59:47.291Z,45.83
2017-10-01T21:02:14.931Z,31.07
2017-10-01T21:04:42.524Z,25.90
2017-10-01T21:07:10.116Z,23.63
2017-10-01T21:09:37.744Z,30.20
2017-10-01T21:12:05.324Z,30.70
2017-10-01T21:14:33.230Z,25.00
2017-10-01T21:17:00.895Z,24.87
2017-10-01T21:19:28.498Z,24.60
2017-10-01T21:21:56.098Z,24.70
2017-10-01T21:24:24.083Z,27.80
2017-10-01T21:26:51.681Z,25.57
2017-10-01T21:29:19.290Z,25.90
2017-10-01T21:31:46.937Z,27.03
2017-10-01T21:34:14.525Z,29.47
2017-10-01T21:36:42.424Z,29.10
2017-10-01T21:39:10.044Z,22.63
2017-10-01T21:41:37.890Z,34.03
2017-10-01T21:44:05.484Z,26.07
2017-10-01T21:46:33.103Z,25.90
2017-10-01T21:49:00.724Z,27.73
2017-10-01T21:51:28.318Z,26.53
2017-10-01T21:53:55.989Z,30.83
2017-10-01T21:56:23.582Z,24.47
2017-10-01T21:58:51.187Z,28.97
2017-10-01T22:01:18.826Z,27.53
2017-10-01T22:03:46.696Z,27.60
2017-10-01T22:06:14.298Z,27.77
2017-10-01T22:08:41.953Z,28.87
2017-10-01T22:11:09.575Z,25.93
2017-10-01T22:13:37.605Z,30.87
2017-10-01T22:16:05.249Z,26.57
2017-10-01T22:18:32.857Z,29.00
2017-10-01T22:21:00.452Z,25.40
2017-10-01T22:23:28.088Z,27.43
2017-10-01T22:25:55.683Z,28.50
2017-10-01T22:28:23.637Z,37.13
2017-10-01T22:30:51.297Z,41.93
2017-10-01T22:33:18.947Z,35.03
2017-10-01T22:35:46.533Z,24.00
2017-10-01T22:38:14.192Z,32.53
2017-10-01T22:40:41.780Z,27.90
2017-10-01T22:43:09.396Z,27.20
2017-10-01T22:45:37.085Z,29.80
2017-10-01T22:48:04.679Z,24.20
2017-10-01T22:50:32.275Z,27.67
2017-10-01T22:52:59.921Z,30.80
2017-10-01T22:55:27.532Z,27.30
2017-10-01T22:57:55.142Z,23.33
2017-10-01T23:00:22.781Z,27.47
2017-10-01T23:02:50.415Z,29.83
2017-10-01T23:05:18.044Z,28.17
2017-10-01T23:07:45.700Z,30.10
2017-10-01T23:10:13.302Z,29.77
2017-10-01T23:12:40.947Z,31.37
2017-10-01T23:15:09.434Z,27.73
2017-10-01T23:17:37.313Z,27.67
2017-10-01T23:20:04.914Z,25.77
2017-10-01T23:22:32.553Z,28.47
2017-10-01T23:25:00.155Z,30.30
2017-10-01T23:27:27.804Z,27.57
2017-10-01T23:29:55.468Z,32.53
2017-10-01T23:32:23.080Z,27.13
2017-10-01T23:34:50.705Z,30.10
2017-10-01T23:37:18.348Z,35.20
2017-10-01T23:39:45.958Z,28.80
2017-10-01T23:42:13.568Z,29.70
2017-10-01T23:44:41.209Z,29.33
2017-10-01T23:47:09.060Z,32.07
2017-10-01T23:49:36.653Z,30.90
2017-10-01T23:52:04.282Z,33.30
2017-10-01T23:54:31.873Z,30.50
2017-10-01T23:56:59.461Z,35.00
2017-10-01T23:59:27.101Z,39.00
